Time;durP1;ratioP1;P1;durP2;ratioP2;P2;SDS_P1;SDS_P2;PMS_P1;PMS_P2;Temp;Humidity;BMP_temperature;BMP_pressure;BME280_temperature;BME280_humidity;BME280_pressure;Samples;Min_cycle;Max_cycle;Signal;HPM_P1;HPM_P2
2023/10/21 00:01:57;;;;;;;2.80;1.90;;;13.80;76.50;;;;;;5001501;28;20145;-56
2023/10/21 00:04:24;;;;;;;2.13;1.85;;;13.90;76.70;;;;;;5006041;28;20038;-55
2023/10/21 00:06:51;;;;;;;3.78;2.20;;;13.90;76.90;;;;;;5009148;28;20037;-57
2023/10/21 00:09:18;;;;;;;1.77;1.67;;;13.90;77.00;;;;;;5009852;28;20066;-56
2023/10/21 00:11:44;;;;;;;4.03;2.08;;;13.90;77.10;;;;;;5001604;28;20034;-54
2023/10/21 00:14:11;;;;;;;2.30;1.60;;;14.00;77.30;;;;;;5002392;28;20056;-57
2023/10/21 00:16:38;;;;;;;2.28;1.75;;;14.00;77.50;;;;;;5004754;28;20116;-53
2023/10/21 00:19:05;;;;;;;1.85;1.67;;;14.00;77.60;;;;;;5011717;28;20472;-56
2023/10/21 00:21:31;;;;;;;2.67;1.80;;;14.10;77.70;;;;;;5008454;28;20132;-54
2023/10/21 00:23:58;;;;;;;1.90;1.45;;;14.10;77.80;;;;;;5011371;28;20069;-53
2023/10/21 00:26:25;;;;;;;1.77;1.52;;;14.20;77.90;;;;;;5002069;28;20093;-56
2023/10/21 00:28:56;;;;;;;5.47;1.85;;;14.20;77.90;;;;;;5010108;28;20056;-54
2023/10/21 00:31:25;;;;;;;1.52;1.42;;;14.30;77.90;;;;;;5000768;28;20531;-57
2023/10/21 00:33:51;;;;;;;4.78;1.90;;;14.30;77.90;;;;;;5007402;28;20103;-54
2023/10/21 00:36:18;;;;;;;3.47;1.77;;;14.30;77.90;;;;;;5010252;28;20061;-57
2023/10/21 00:38:45;;;;;;;2.22;2.13;;;14.30;78.10;;;;;;4999595;28;20083;-56
2023/10/21 00:41:12;;;;;;;2.95;1.65;;;14.40;78.20;;;;;;4994574;28;20061;-53
2023/10/21 00:43:43;;;;;;;4.05;2.63;;;14.40;78.40;;;;;;5009927;28;20049;-53
2023/10/21 00:46:12;;;;;;;2.17;1.92;;;14.40;78.40;;;;;;5003394;28;20069;-55
2023/10/21 00:48:41;;;;;;;4.05;2.00;;;14.50;78.50;;;;;;5011593;28;20460;-56
2023/10/21 00:51:09;;;;;;;2.55;1.80;;;14.50;78.60;;;;;;5005449;28;20046;-56
2023/10/21 00:53:37;;;;;;;4.60;2.42;;;14.60;78.70;;;;;;5005087;28;20696;-56
2023/10/21 00:56:08;;;;;;;3.10;1.90;;;14.60;78.80;;;;;;5006772;28;20030;-56
2023/10/21 00:58:35;;;;;;;3.38;1.80;;;14.60;78.80;;;;;;5010848;28;20042;-56
2023/10/21 01:01:08;;;;;;;3.75;1.92;;;14.70;78.80;;;;;;5008703;28;20057;-55
2023/10/21 01:03:37;;;;;;;2.38;1.80;;;14.80;79.00;;;;;;4994968;28;20058;-57
2023/10/21 01:06:04;;;;;;;4.43;1.65;;;14.80;78.90;;;;;;5009370;28;20104;-56
2023/10/21 01:08:39;;;;;;;2.47;1.95;;;14.80;78.80;;;;;;5010099;28;20092;-56
2023/10/21 01:11:10;;;;;;;2.88;2.10;;;14.90;78.90;;;;;;5009535;28;20056;-57
2023/10/21 01:13:37;;;;;;;3.08;2.03;;;14.90;78.80;;;;;;5003048;28;20038;-56
2023/10/21 01:16:04;;;;;;;2.08;1.98;;;14.90;78.80;;;;;;5010821;28;20432;-53
2023/10/21 01:18:33;;;;;;;2.40;2.20;;;15.00;78.80;;;;;;5010426;28;20045;-55
2023/10/21 01:21:01;;;;;;;9.30;2.28;;;15.00;78.80;;;;;;5009417;28;20034;-55
2023/10/21 01:23:28;;;;;;;2.17;1.80;;;15.00;78.80;;;;;;5004498;28;20034;-57
2023/10/21 01:25:55;;;;;;;2.95;2.10;;;15.10;78.80;;;;;;5008477;28;20117;-56
2023/10/21 01:28:22;;;;;;;2.10;1.90;;;15.10;78.80;;;;;;5008873;28;20066;-55
2023/10/21 01:30:49;;;;;;;2.65;2.20;;;15.10;78.80;;;;;;5009975;28;20042;-57
2023/10/21 01:33:15;;;;;;;4.03;2.42;;;15.10;78.80;;;;;;5003395;28;20070;-57
2023/10/21 01:35:43;;;;;;;7.13;2.53;;;15.20;78.90;;;;;;5008981;28;20045;-57
2023/10/21 01:38:10;;;;;;;3.75;2.45;;;15.20;78.90;;;;;;5011116;28;20046;-56
2023/10/21 01:40:37;;;;;;;2.55;2.35;;;15.20;78.90;;;;;;5006015;28;20054;-54
2023/10/21 01:43:04;;;;;;;2.53;2.05;;;15.20;78.90;;;;;;5008851;28;20033;-57
2023/10/21 01:45:31;;;;;;;3.72;2.55;;;15.30;78.90;;;;;;5009522;28;20125;-54
2023/10/21 01:48:02;;;;;;;2.75;2.55;;;15.30;78.90;;;;;;5025938;28;20045;-55
2023/10/21 01:50:29;;;;;;;5.55;2.35;;;15.30;78.90;;;;;;5016664;28;20041;-55
2023/10/21 01:52:57;;;;;;;4.03;2.58;;;15.30;78.90;;;;;;5006858;28;20069;-57
2023/10/21 01:55:26;;;;;;;4.03;2.30;;;15.30;78.90;;;;;;5004972;28;20559;-57
2023/10/21 01:57:53;;;;;;;2.40;2.20;;;15.30;79.00;;;;;;5009712;28;20050;-57
2023/10/21 02:00:20;;;;;;;6.60;2.90;;;15.40;79.10;;;;;;5008476;28;20050;-53
2023/10/21 02:02:50;;;;;;;3.67;2.63;;;15.40;79.00;;;;;;5008991;28;20044;-57
2023/10/21 02:05:19;;;;;;;2.60;2.20;;;15.40;79.10;;;;;;5003119;28;20054;-54
2023/10/21 02:07:46;;;;;;;2.88;2.10;;;15.40;79.20;;;;;;5009111;28;20048;-57
2023/10/21 02:10:14;;;;;;;3.13;2.75;;;15.40;79.20;;;;;;5007163;28;20136;-56
2023/10/21 02:12:41;;;;;;;2.63;2.03;;;15.40;79.30;;;;;;5006823;28;20065;-56
2023/10/21 02:15:11;;;;;;;2.90;2.38;;;15.40;79.60;;;;;;5002003;28;20042;-54
2023/10/21 02:17:39;;;;;;;2.73;2.53;;;15.50;79.70;;;;;;5003853;28;20403;-52
2023/10/21 02:20:07;;;;;;;2.70;2.55;;;15.50;79.70;;;;;;4999322;28;20042;-54
2023/10/21 02:22:34;;;;;;;3.20;2.67;;;15.50;79.70;;;;;;4998320;28;20059;-55
2023/10/21 02:25:00;;;;;;;2.47;2.28;;;15.50;79.80;;;;;;4999567;28;20487;-53
2023/10/21 02:27:40;;;;;;;4.57;2.38;;;15.50;79.80;;;;;;5019939;28;20120;-56
2023/10/21 02:30:12;;;;;;;2.60;2.40;;;15.50;79.90;;;;;;4999805;28;20515;-54
2023/10/21 02:32:44;;;;;;;2.25;2.05;;;15.60;80.00;;;;;;4999046;28;20034;-57
2023/10/21 02:35:12;;;;;;;3.17;2.50;;;15.60;80.00;;;;;;5004376;28;20045;-54
2023/10/21 02:37:39;;;;;;;2.72;2.53;;;15.60;80.00;;;;;;5000380;28;20053;-55
2023/10/21 02:40:06;;;;;;;4.05;2.70;;;15.60;80.00;;;;;;4997008;28;20042;-56
2023/10/21 02:42:34;;;;;;;2.28;2.08;;;15.60;80.10;;;;;;4996694;28;20627;-56
2023/10/21 02:45:01;;;;;;;2.63;2.30;;;15.70;80.20;;;;;;5001283;28;20050;-55
2023/10/21 02:47:28;;;;;;;2.80;2.55;;;15.70;80.20;;;;;;5000627;28;20045;-56
2023/10/21 02:49:55;;;;;;;3.75;2.40;;;15.70;80.30;;;;;;5000375;28;20055;-53
2023/10/21 02:52:22;;;;;;;2.97;2.78;;;15.70;80.30;;;;;;5001238;28;20129;-56
2023/10/21 02:54:48;;;;;;;3.00;2.25;;;15.70;80.30;;;;;;5004865;28;20041;-56
2023/10/21 02:57:16;;;;;;;2.83;2.30;;;15.70;80.40;;;;;;5016208;23;20061;-49
2023/10/21 02:59:43;;;;;;;2.75;2.10;;;15.80;80.50;;;;;;4982559;28;20792;-48
2023/10/21 03:02:09;;;;;;;3.15;2.60;;;15.80;80.50;;;;;;4988795;28;20049;-50
2023/10/21 03:04:36;;;;;;;3.90;2.15;;;15.80;80.60;;;;;;4987860;28;20073;-48
2023/10/21 03:07:04;;;;;;;3.72;2.33;;;15.90;80.70;;;;;;4979322;28;20074;-53
2023/10/21 03:09:31;;;;;;;2.90;2.10;;;15.90;80.80;;;;;;4945321;28;20501;-49
2023/10/21 03:11:57;;;;;;;3.05;1.65;;;15.90;80.80;;;;;;4967980;28;20521;-51
2023/10/21 03:14:24;;;;;;;2.28;1.70;;;15.90;80.80;;;;;;4967455;28;20051;-47
2023/10/21 03:16:52;;;;;;;2.13;1.80;;;15.90;80.90;;;;;;4949588;28;20043;-48
2023/10/21 03:19:18;;;;;;;2.85;1.90;;;15.90;81.00;;;;;;4973439;28;20126;-48
2023/10/21 03:21:45;;;;;;;2.35;1.88;;;15.90;81.00;;;;;;4956928;28;20043;-52
2023/10/21 03:24:12;;;;;;;2.13;1.70;;;16.00;81.00;;;;;;4954144;28;20118;-51
2023/10/21 03:26:38;;;;;;;2.28;1.98;;;16.00;81.10;;;;;;4973285;28;20066;-50
2023/10/21 03:29:05;;;;;;;2.28;1.67;;;16.00;81.20;;;;;;4953151;29;20110;-51
2023/10/21 03:31:32;;;;;;;1.45;1.35;;;16.00;81.20;;;;;;4972703;28;20093;-51
2023/10/21 03:33:59;;;;;;;2.03;1.80;;;16.10;81.20;;;;;;4973496;28;20074;-52
2023/10/21 03:36:26;;;;;;;1.40;1.30;;;16.00;81.10;;;;;;4949695;28;20596;-51
2023/10/21 03:38:53;;;;;;;1.15;1.13;;;16.10;81.10;;;;;;4973562;28;20433;-52
2023/10/21 03:41:19;;;;;;;1.40;1.27;;;16.10;81.10;;;;;;4972813;28;20078;-48
2023/10/21 03:43:46;;;;;;;2.50;1.33;;;16.10;81.10;;;;;;4972767;28;20189;-51
2023/10/21 03:46:17;;;;;;;2.88;1.50;;;16.10;81.00;;;;;;4973622;28;20134;-52
2023/10/21 03:48:44;;;;;;;1.30;1.27;;;16.10;81.00;;;;;;4973893;28;20548;-52
2023/10/21 03:51:12;;;;;;;1.77;1.58;;;16.10;81.00;;;;;;4972011;28;20054;-53
2023/10/21 03:53:40;;;;;;;3.38;1.30;;;16.10;81.00;;;;;;4972264;28;20042;-51
2023/10/21 03:56:10;;;;;;;3.58;1.42;;;16.10;81.00;;;;;;4972538;28;20043;-51
2023/10/21 03:58:38;;;;;;;1.83;1.33;;;16.10;81.10;;;;;;4972811;28;20062;-53
2023/10/21 04:01:05;;;;;;;2.13;1.40;;;16.10;81.10;;;;;;4952693;29;20585;-52
2023/10/21 04:03:35;;;;;;;2.03;1.30;;;16.10;81.10;;;;;;4971269;28;20740;-50
2023/10/21 04:06:03;;;;;;;2.13;1.10;;;16.10;81.00;;;;;;4971519;28;20538;-52
2023/10/21 04:08:30;;;;;;;1.17;1.17;;;16.10;81.00;;;;;;4972409;28;20039;-55
2023/10/21 04:10:57;;;;;;;1.15;1.08;;;16.00;80.90;;;;;;4972747;28;20043;-53
2023/10/21 04:13:24;;;;;;;1.60;1.17;;;16.00;81.00;;;;;;4969411;28;20113;-53
2023/10/21 04:15:51;;;;;;;1.80;1.60;;;16.00;81.10;;;;;;4970947;28;20047;-49
2023/10/21 04:18:18;;;;;;;2.17;1.27;;;16.00;81.10;;;;;;4959755;28;20043;-52
2023/10/21 04:20:45;;;;;;;1.20;1.10;;;16.00;81.20;;;;;;4972977;28;20047;-53
2023/10/21 04:23:12;;;;;;;3.58;1.65;;;16.00;81.20;;;;;;4972184;28;20101;-49
2023/10/21 04:25:39;;;;;;;2.88;1.40;;;16.00;81.40;;;;;;4971552;28;20683;-52
2023/10/21 04:28:07;;;;;;;1.45;1.35;;;16.00;81.40;;;;;;4972812;28;20105;-51
2023/10/21 04:30:35;;;;;;;2.00;1.20;;;16.00;81.40;;;;;;4972785;28;20066;-47
2023/10/21 04:33:02;;;;;;;1.88;0.90;;;16.00;81.50;;;;;;4972213;28;20047;-51
2023/10/21 04:35:29;;;;;;;1.40;1.30;;;16.00;81.60;;;;;;4971555;28;20134;-48
2023/10/21 04:37:56;;;;;;;1.67;1.42;;;16.00;81.60;;;;;;4972550;28;20038;-55
2023/10/21 04:40:23;;;;;;;1.45;1.20;;;16.00;81.70;;;;;;4972585;28;20042;-51
2023/10/21 04:42:49;;;;;;;2.80;1.35;;;16.00;81.70;;;;;;4971725;28;20070;-53
2023/10/21 04:45:18;;;;;;;2.28;1.10;;;16.10;81.80;;;;;;4971853;28;20043;-51
2023/10/21 04:47:45;;;;;;;2.80;1.33;;;16.10;81.70;;;;;;4972850;28;20497;-50
2023/10/21 04:50:12;;;;;;;1.63;1.00;;;16.10;81.70;;;;;;4971473;28;20613;-53
2023/10/21 04:52:38;;;;;;;3.90;1.65;;;16.10;81.70;;;;;;4970095;28;20560;-55
2023/10/21 04:55:05;;;;;;;1.60;1.50;;;16.10;81.70;;;;;;4963413;28;20662;-48
2023/10/21 04:57:35;;;;;;;3.72;1.48;;;16.10;81.50;;;;;;4971888;28;20051;-54
2023/10/21 05:00:08;;;;;;;4.13;1.33;;;16.10;81.30;;;;;;4972340;28;20416;-51
2023/10/21 05:02:34;;;;;;;2.20;1.35;;;16.10;81.20;;;;;;4955690;28;20046;-51
2023/10/21 05:05:01;;;;;;;2.92;1.50;;;16.10;81.10;;;;;;4970462;28;20051;-49
2023/10/21 05:07:28;;;;;;;1.77;1.23;;;16.10;81.00;;;;;;4967361;28;20085;-55
2023/10/21 05:09:55;;;;;;;1.42;1.25;;;16.00;80.90;;;;;;4971768;28;20382;-52
2023/10/21 05:12:22;;;;;;;3.55;1.30;;;16.00;81.60;;;;;;4973135;28;20078;-54
2023/10/21 05:14:49;;;;;;;3.70;2.22;;;16.00;81.00;;;;;;4971272;28;20047;-52
2023/10/21 05:17:17;;;;;;;1.58;1.35;;;16.00;81.00;;;;;;4972041;28;20039;-53
2023/10/21 05:19:43;;;;;;;1.92;1.73;;;15.90;81.10;;;;;;4971494;28;20134;-51
2023/10/21 05:22:10;;;;;;;1.83;1.08;;;15.90;81.00;;;;;;4969417;28;20482;-51
2023/10/21 05:24:37;;;;;;;2.15;1.60;;;15.90;81.00;;;;;;4960923;28;20141;-48
2023/10/21 05:27:06;;;;;;;1.52;1.23;;;15.90;81.00;;;;;;4971458;28;20512;-54
2023/10/21 05:29:33;;;;;;;1.45;1.17;;;15.90;81.20;;;;;;4969866;28;20045;-50
2023/10/21 05:32:00;;;;;;;4.82;1.80;;;15.80;81.00;;;;;;4971901;28;20130;-50
2023/10/21 05:34:27;;;;;;;3.47;1.60;;;15.80;81.10;;;;;;4970202;28;20042;-47
2023/10/21 05:36:54;;;;;;;1.98;1.60;;;15.80;81.00;;;;;;4971599;28;20125;-53
2023/10/21 05:39:22;;;;;;;2.72;1.40;;;15.80;81.20;;;;;;4970973;28;20142;-49
2023/10/21 05:41:49;;;;;;;4.13;1.42;;;15.70;81.20;;;;;;4971434;28;20513;-52
2023/10/21 05:44:16;;;;;;;2.70;1.42;;;15.70;81.20;;;;;;4970264;28;20047;-48
2023/10/21 05:46:43;;;;;;;2.75;1.30;;;15.70;81.30;;;;;;4968262;28;20125;-53
2023/10/21 05:49:10;;;;;;;2.97;1.73;;;15.70;81.60;;;;;;4964680;28;20046;-49
2023/10/21 05:51:37;;;;;;;2.63;1.60;;;15.70;82.00;;;;;;4966380;28;20133;-53
2023/10/21 05:54:06;;;;;;;5.35;1.42;;;15.70;82.30;;;;;;4969221;28;20058;-49
2023/10/21 05:56:35;;;;;;;2.83;1.45;;;15.70;82.60;;;;;;4965104;28;20047;-48
2023/10/21 05:59:04;;;;;;;2.30;1.33;;;15.80;82.80;;;;;;4968001;28;20109;-51
2023/10/21 06:01:31;;;;;;;1.58;1.48;;;15.80;82.80;;;;;;4970716;28;20050;-50
2023/10/21 06:03:57;;;;;;;3.15;1.20;;;15.80;82.60;;;;;;4970165;28;20054;-50
2023/10/21 06:06:24;;;;;;;3.13;1.75;;;15.80;82.40;;;;;;4969387;28;20057;-51
2023/10/21 06:08:52;;;;;;;1.98;1.30;;;15.80;82.40;;;;;;4970505;28;20051;-49
2023/10/21 06:11:20;;;;;;;1.77;1.00;;;15.90;82.30;;;;;;4969684;28;20043;-48
2023/10/21 06:13:48;;;;;;;4.70;1.45;;;15.90;82.10;;;;;;4970723;28;20465;-51
2023/10/21 06:16:17;;;;;;;1.30;1.08;;;15.90;82.00;;;;;;4966151;28;20500;-58
2023/10/21 06:18:46;;;;;;;2.50;1.40;;;15.90;81.90;;;;;;4970669;28;20097;-59
2023/10/21 06:21:12;;;;;;;1.17;1.05;;;15.90;82.00;;;;;;4969570;28;20551;-57
2023/10/21 06:23:41;;;;;;;1.50;0.95;;;16.00;82.00;;;;;;4968206;28;20101;-58
2023/10/21 06:26:13;;;;;;;2.92;1.10;;;16.10;82.00;;;;;;4969009;28;20580;-57
2023/10/21 06:28:40;;;;;;;2.13;1.08;;;16.10;82.10;;;;;;4962600;28;20051;-58
2023/10/21 06:31:07;;;;;;;2.30;1.35;;;16.10;81.90;;;;;;4969989;28;20544;-58
2023/10/21 06:33:36;;;;;;;3.85;1.80;;;16.10;81.80;;;;;;4969784;28;20066;-59
2023/10/21 06:36:03;;;;;;;1.40;1.00;;;16.20;81.80;;;;;;4965723;28;20054;-58
2023/10/21 06:38:31;;;;;;;2.40;0.95;;;16.20;81.70;;;;;;4968254;28;20043;-58
2023/10/21 06:40:58;;;;;;;4.78;1.23;;;16.20;81.60;;;;;;4962058;28;20059;-58
2023/10/21 06:43:40;;;;;;;1.63;0.70;;;16.30;81.50;;;;;;4963588;28;20109;-58
2023/10/21 06:46:07;;;;;;;2.65;1.50;;;16.30;81.40;;;;;;4955070;28;20050;-58
2023/10/21 06:48:34;;;;;;;1.02;0.73;;;16.40;81.30;;;;;;4961442;28;20130;-57
2023/10/21 06:51:01;;;;;;;0.85;0.68;;;16.40;81.10;;;;;;4963043;28;20390;-58
2023/10/21 06:53:28;;;;;;;1.73;0.70;;;16.50;81.00;;;;;;4962275;28;20549;-58
2023/10/21 06:55:54;;;;;;;1.02;0.50;;;16.50;80.50;;;;;;4964546;28;20051;-58
2023/10/21 06:58:21;;;;;;;1.75;0.85;;;16.60;80.20;;;;;;4967297;28;20549;-58
2023/10/21 07:00:48;;;;;;;1.42;0.30;;;16.60;79.80;;;;;;4965462;28;20588;-58
2023/10/21 07:03:15;;;;;;;0.30;0.30;;;16.70;79.40;;;;;;4969364;28;20129;-59
2023/10/21 07:05:42;;;;;;;0.63;0.47;;;16.70;79.10;;;;;;4967995;28;20047;-59
2023/10/21 07:08:11;;;;;;;1.63;0.50;;;16.70;78.80;;;;;;4968687;28;20481;-58
2023/10/21 07:10:39;;;;;;;0.93;0.40;;;16.80;78.60;;;;;;4970289;28;20123;-58
2023/10/21 07:13:05;;;;;;;2.03;0.40;;;16.80;78.50;;;;;;4965572;28;20152;-58
2023/10/21 07:15:32;;;;;;;0.38;0.20;;;16.90;78.40;;;;;;4969899;28;20071;-57
2023/10/21 07:17:59;;;;;;;0.60;0.20;;;16.90;78.50;;;;;;4950523;28;20042;-58
2023/10/21 07:20:26;;;;;;;0.57;0.30;;;17.00;78.20;;;;;;4968251;28;20502;-59
2023/10/21 07:22:54;;;;;;;0.40;0.20;;;17.00;77.60;;;;;;4963646;28;20043;-58
2023/10/21 07:25:21;;;;;;;0.70;0.68;;;17.00;77.30;;;;;;4957830;28;20420;-58
2023/10/21 07:27:48;;;;;;;0.77;0.30;;;17.00;77.00;;;;;;4962350;28;20063;-59
2023/10/21 07:30:15;;;;;;;1.40;0.50;;;17.00;76.20;;;;;;4969824;28;21998;-59
2023/10/21 07:32:42;;;;;;;0.63;0.28;;;17.00;75.90;;;;;;4963310;28;20523;-58
2023/10/21 07:35:09;;;;;;;0.85;0.20;;;17.00;75.60;;;;;;4966088;28;20046;-59
2023/10/21 07:37:37;;;;;;;1.60;0.20;;;17.00;75.30;;;;;;4961828;28;20039;-58
2023/10/21 07:40:07;;;;;;;1.95;0.40;;;16.90;75.00;;;;;;4962559;28;20043;-58
2023/10/21 07:42:34;;;;;;;0.20;0.20;;;16.90;74.80;;;;;;4962831;28;20565;-59
2023/10/21 07:45:01;;;;;;;0.35;0.20;;;16.80;75.00;;;;;;4966150;28;20046;-58
2023/10/21 07:47:27;;;;;;;0.10;0.10;;;16.80;75.10;;;;;;4966876;28;20090;-59
2023/10/21 07:49:54;;;;;;;0.22;0.10;;;16.80;75.30;;;;;;4965389;28;20039;-59
2023/10/21 07:52:22;;;;;;;3.25;0.30;;;16.80;75.50;;;;;;4964530;28;20557;-58
2023/10/21 07:54:49;;;;;;;0.43;0.25;;;16.80;75.50;;;;;;4968314;28;20493;-56
2023/10/21 07:57:16;;;;;;;1.33;0.20;;;16.80;75.60;;;;;;4965533;28;20472;-59
2023/10/21 07:59:44;;;;;;;1.10;0.30;;;16.80;75.60;;;;;;4963269;28;20086;-59
2023/10/21 08:02:10;;;;;;;0.35;0.10;;;16.90;75.60;;;;;;4969305;28;20043;-57
2023/10/21 08:04:37;;;;;;;0.10;0.10;;;16.90;75.70;;;;;;4969893;28;20130;-58
2023/10/21 08:07:05;;;;;;;0.38;0.20;;;16.90;75.70;;;;;;4971336;28;20061;-59
2023/10/21 08:09:31;;;;;;;0.68;0.20;;;17.00;75.00;;;;;;4966651;28;20278;-58
2023/10/21 08:11:59;;;;;;;0.90;0.10;;;17.00;74.60;;;;;;4968656;28;20113;-59
2023/10/21 08:14:27;;;;;;;0.38;0.30;;;17.10;74.30;;;;;;4968926;28;20047;-59
2023/10/21 08:16:56;;;;;;;0.65;0.10;;;17.10;73.60;;;;;;4960490;28;20550;-59
2023/10/21 08:19:24;;;;;;;0.93;0.20;;;17.10;73.20;;;;;;4967724;28;20043;-59
2023/10/21 08:21:51;;;;;;;2.00;0.20;;;17.10;72.70;;;;;;4967188;28;20065;-59
2023/10/21 08:24:20;;;;;;;1.10;0.22;;;17.10;72.40;;;;;;4965017;28;20055;-59
2023/10/21 08:26:46;;;;;;;1.38;0.30;;;17.10;71.70;;;;;;4966905;28;20567;-57
2023/10/21 08:29:13;;;;;;;0.30;0.30;;;17.10;71.50;;;;;;4972448;28;20046;-58
2023/10/21 08:31:40;;;;;;;3.80;1.38;;;17.00;71.40;;;;;;4970359;28;20584;-58
2023/10/21 08:34:12;;;;;;;0.82;0.60;;;17.00;71.20;;;;;;4972182;28;20050;-58
2023/10/21 08:36:40;;;;;;;;;;;17.00;71.30;;;;;;4967506;28;20042;-58
2023/10/21 08:39:07;;;;;;;4.70;0.50;;;17.00;71.50;;;;;;4971295;28;19929;-59
2023/10/21 08:41:39;;;;;;;0.82;0.17;;;17.00;71.50;;;;;;4970774;28;20061;-59
2023/10/21 08:44:07;;;;;;;0.60;0.20;;;17.00;71.10;;;;;;4970047;28;20516;-58
2023/10/21 08:46:35;;;;;;;1.00;0.40;;;17.00;71.30;;;;;;4970524;28;20070;-58
2023/10/21 08:49:03;;;;;;;1.25;0.30;;;17.00;71.40;;;;;;4971064;28;20050;-59
2023/10/21 08:51:32;;;;;;;3.53;0.47;;;17.00;71.00;;;;;;4969796;28;20101;-59
2023/10/21 08:54:03;;;;;;;2.67;0.38;;;17.10;70.60;;;;;;4968718;28;20043;-59
2023/10/21 08:56:31;;;;;;;2.40;0.38;;;17.20;70.80;;;;;;4969050;28;20669;-57
2023/10/21 08:58:57;;;;;;;2.83;0.50;;;17.20;70.50;;;;;;4968877;28;20042;-59
2023/10/21 09:01:24;;;;;;;0.88;0.30;;;17.30;70.40;;;;;;4970231;28;20738;-60
2023/10/21 09:03:51;;;;;;;1.08;0.20;;;17.40;70.00;;;;;;4972198;28;20409;-60
2023/10/21 09:06:19;;;;;;;1.17;0.30;;;17.40;69.50;;;;;;4970422;28;20542;-59
2023/10/21 09:08:49;;;;;;;1.33;0.40;;;17.50;69.00;;;;;;4971540;28;20050;-59
2023/10/21 09:11:19;;;;;;;1.80;0.50;;;17.50;69.40;;;;;;4967045;28;20043;-60
2023/10/21 09:13:47;;;;;;;1.88;0.57;;;17.50;68.60;;;;;;4971365;28;20529;-60
2023/10/21 09:16:25;;;;;;;1.40;0.50;;;17.50;68.20;;;;;;4965052;28;20529;-60
2023/10/21 09:19:06;;;;;;;0.30;0.25;;;17.60;67.40;;;;;;4963286;28;20574;-59
2023/10/21 09:21:45;;;;;;;0.47;0.47;;;17.60;66.80;;;;;;4967645;28;20075;-60
2023/10/21 09:24:19;;;;;;;1.33;0.60;;;17.60;67.30;;;;;;4965406;28;20076;-60
2023/10/21 09:26:47;;;;;;;0.65;0.50;;;17.60;68.00;;;;;;4964152;28;20047;-60
2023/10/21 09:29:18;;;;;;;0.70;0.60;;;17.70;67.70;;;;;;4965477;28;20070;-60
2023/10/21 09:31:47;;;;;;;1.92;0.30;;;17.70;67.60;;;;;;4970398;28;20210;-60
2023/10/21 09:34:27;;;;;;;1.50;0.35;;;17.80;67.00;;;;;;4970142;28;20054;-60
2023/10/21 09:36:56;;;;;;;0.93;0.40;;;17.80;66.30;;;;;;4967750;28;20501;-60
2023/10/21 09:39:25;;;;;;;0.85;0.40;;;17.80;66.90;;;;;;4965844;28;20520;-57
2023/10/21 09:41:52;;;;;;;1.13;0.55;;;17.80;66.70;;;;;;4968404;28;20470;-60
2023/10/21 09:44:19;;;;;;;0.90;0.35;;;17.80;66.80;;;;;;4965218;28;20155;-60
2023/10/21 09:46:47;;;;;;;1.10;0.35;;;17.90;67.20;;;;;;4965821;28;20051;-60
2023/10/21 09:49:15;;;;;;;0.85;0.50;;;17.90;67.30;;;;;;4966269;28;20043;-60
2023/10/21 09:52:09;;;;;;;2.70;0.40;;;18.00;66.80;;;;;;4970966;28;20050;-59
2023/10/21 09:54:47;;;;;;;1.98;0.32;;;18.00;65.80;;;;;;4963373;28;20039;-59
2023/10/21 09:57:15;;;;;;;1.92;0.70;;;18.10;66.10;;;;;;4970029;28;20041;-59
2023/10/21 09:59:44;;;;;;;1.10;0.40;;;18.10;66.10;;;;;;4958718;28;20059;-59
2023/10/21 10:02:13;;;;;;;0.50;0.47;;;18.20;65.90;;;;;;4970189;28;20043;-60
2023/10/21 10:04:40;;;;;;;5.07;0.98;;;18.20;66.30;;;;;;4969746;28;20047;-60
2023/10/21 10:07:07;;;;;;;2.25;0.40;;;18.30;66.00;;;;;;4971146;28;20070;-58
2023/10/21 10:09:42;;;;;;;1.13;0.30;;;18.30;65.60;;;;;;4967164;28;20464;-60
2023/10/21 10:12:28;;;;;;;1.38;0.10;;;18.40;65.30;;;;;;4970148;28;20066;-60
2023/10/21 10:14:54;;;;;;;1.05;0.40;;;18.40;64.00;;;;;;4959964;28;20073;-59
2023/10/21 10:17:46;;;;;;;0.82;0.50;;;18.40;64.60;;;;;;4969953;28;20035;-60
2023/10/21 10:20:23;;;;;;;1.58;0.38;;;18.40;64.00;;;;;;4963130;28;20042;-60
2023/10/21 10:23:09;;;;;;;1.63;0.50;;;18.50;64.60;;;;;;4964278;28;20541;-59
2023/10/21 10:25:38;;;;;;;2.85;1.00;;;18.50;64.90;;;;;;4967694;28;20046;-58
2023/10/21 10:28:17;;;;;;;2.35;0.90;;;18.50;65.20;;;;;;4970705;28;20053;-60
2023/10/21 10:30:52;;;;;;;0.45;0.30;;;18.60;64.20;;;;;;4966070;28;20053;-58
2023/10/21 10:33:22;;;;;;;;;;;18.60;63.60;;;;;;4970223;28;20054;-58
2023/10/21 10:35:51;;;;;;;0.73;0.30;;;18.70;64.70;;;;;;4966551;28;19973;-59
2023/10/21 10:38:31;;;;;;;0.82;0.30;;;18.60;63.60;;;;;;4962838;28;20049;-58
2023/10/21 10:41:06;;;;;;;0.60;0.30;;;18.60;63.10;;;;;;4967644;28;20054;-59
2023/10/21 10:43:34;;;;;;;2.58;0.38;;;18.60;62.50;;;;;;4962455;28;20043;-59
2023/10/21 10:46:02;;;;;;;1.55;0.40;;;18.60;63.40;;;;;;4967179;28;20034;-59
2023/10/21 10:48:29;;;;;;;2.65;0.68;;;18.70;63.60;;;;;;4971322;28;20047;-60
2023/10/21 10:51:01;;;;;;;1.33;0.32;;;18.70;63.70;;;;;;4967918;28;20501;-60
2023/10/21 10:53:28;;;;;;;3.22;0.50;;;18.80;63.30;;;;;;4966517;28;20122;-60
2023/10/21 10:55:55;;;;;;;2.35;0.50;;;18.90;63.20;;;;;;4964856;28;20211;-59
2023/10/21 10:58:26;;;;;;;2.83;0.43;;;18.90;62.10;;;;;;4970455;28;20042;-60
2023/10/21 11:00:53;;;;;;;1.95;0.40;;;19.00;61.50;;;;;;4970313;28;20047;-59
2023/10/21 11:03:33;;;;;;;1.70;0.45;;;19.00;61.20;;;;;;4962461;28;20046;-60
2023/10/21 11:06:00;;;;;;;0.88;0.30;;;19.10;59.90;;;;;;4957211;28;20187;-60
2023/10/21 11:08:30;;;;;;;5.95;1.85;;;19.10;60.90;;;;;;4961217;28;20050;-59
2023/10/21 11:11:04;;;;;;;1.70;0.50;;;19.10;60.90;;;;;;4968622;28;20067;-59
2023/10/21 11:13:32;;;;;;;4.43;0.50;;;19.30;60.40;;;;;;4963721;28;20645;-59
2023/10/21 11:16:00;;;;;;;1.52;0.70;;;19.20;60.70;;;;;;4963751;28;20122;-59
2023/10/21 11:18:28;;;;;;;1.80;0.40;;;19.20;60.20;;;;;;4964764;28;20066;-60
2023/10/21 11:20:55;;;;;;;1.80;0.40;;;19.20;59.70;;;;;;4961567;28;20122;-60
2023/10/21 11:23:26;;;;;;;3.35;0.50;;;19.20;59.70;;;;;;4963917;28;20070;-60
2023/10/21 11:25:54;;;;;;;2.65;0.50;;;19.30;59.30;;;;;;4959490;28;20042;-60
2023/10/21 11:28:22;;;;;;;1.50;0.55;;;19.20;58.80;;;;;;4970222;28;20122;-60
2023/10/21 11:30:49;;;;;;;3.60;0.52;;;19.20;59.20;;;;;;4968344;28;20066;-60
2023/10/21 11:33:17;;;;;;;4.60;0.60;;;19.20;59.30;;;;;;4970336;28;20125;-59
2023/10/21 11:35:45;;;;;;;2.47;0.40;;;19.20;59.30;;;;;;4962006;28;20045;-60
2023/10/21 11:38:19;;;;;;;2.20;0.75;;;19.10;59.60;;;;;;4968796;28;20042;-59
2023/10/21 11:40:47;;;;;;;2.75;0.50;;;19.10;59.40;;;;;;4966595;28;20089;-59
2023/10/21 11:43:18;;;;;;;1.27;0.90;;;19.00;59.90;;;;;;4972510;28;20055;-60
2023/10/21 11:45:49;;;;;;;2.20;0.55;;;19.00;59.60;;;;;;4953241;28;20070;-59
2023/10/21 11:48:16;;;;;;;2.72;0.93;;;18.90;60.00;;;;;;4974101;28;20042;-57
2023/10/21 11:50:45;;;;;;;1.80;0.60;;;18.90;60.30;;;;;;4973028;28;20129;-59
2023/10/21 11:53:12;;;;;;;10.73;2.03;;;18.80;60.50;;;;;;4971676;28;20130;-58
2023/10/21 12:10:39;;;;;;;3.22;1.45;;;19.00;60.70;;;;;;4972519;28;20081;-59
2023/10/21 12:15:45;;;;;;;6.57;1.02;;;19.00;60.40;;;;;;4966987;28;20784;-58
2023/10/21 12:29:51;;;;;;;1.98;0.88;;;19.00;59.60;;;;;;4971069;28;20126;-59
2023/10/21 12:37:45;;;;;;;3.92;0.85;;;19.00;59.60;;;;;;4971286;28;20039;-59
2023/10/21 12:43:20;;;;;;;3.17;1.02;;;18.90;59.80;;;;;;4972535;28;20344;-59
2023/10/21 12:45:45;;;;;;;3.90;0.95;;;18.90;59.50;;;;;;4969683;28;20069;-60
2023/10/21 12:48:14;;;;;;;3.15;0.90;;;18.90;58.90;;;;;;4972093;28;20431;-59
2023/10/21 12:50:41;;;;;;;4.57;1.52;;;18.90;58.90;;;;;;4970953;28;20047;-59
2023/10/21 12:53:14;;;;;;;2.80;1.10;;;18.90;58.70;;;;;;4969466;28;20050;-60
2023/10/21 12:55:46;;;;;;;4.43;1.08;;;18.90;58.50;;;;;;4969933;28;20121;-59
2023/10/21 12:58:14;;;;;;;4.35;0.95;;;18.90;58.20;;;;;;4971584;28;20151;-60
2023/10/21 13:00:43;;;;;;;5.53;1.35;;;19.00;58.20;;;;;;4953676;28;20125;-60
2023/10/21 13:03:13;;;;;;;5.55;1.42;;;19.00;57.30;;;;;;4970843;28;20578;-59
2023/10/21 13:05:43;;;;;;;4.20;1.23;;;19.10;56.80;;;;;;4968369;28;20158;-58
2023/10/21 13:08:10;;;;;;;3.92;1.55;;;19.10;56.90;;;;;;4971476;28;20515;-59
2023/10/21 13:10:39;;;;;;;3.38;1.15;;;19.10;57.00;;;;;;4970352;28;20141;-59
2023/10/21 13:13:12;;;;;;;4.10;1.10;;;19.10;57.60;;;;;;4952220;28;20463;-60
2023/10/21 13:15:46;;;;;;;2.53;0.88;;;19.20;57.50;;;;;;4964534;28;20121;-59
2023/10/21 13:18:18;;;;;;;2.63;1.20;;;19.20;57.50;;;;;;4967554;28;20101;-60
2023/10/21 13:20:46;;;;;;;4.15;1.48;;;19.30;57.40;;;;;;4968915;28;20072;-59
2023/10/21 13:23:16;;;;;;;6.63;1.73;;;19.40;57.20;;;;;;4970880;28;20058;-60
2023/10/21 13:25:44;;;;;;;3.83;1.48;;;19.50;57.30;;;;;;4969107;28;20054;-58
2023/10/21 13:28:13;;;;;;;3.97;1.23;;;19.60;57.00;;;;;;4971121;28;20054;-60
2023/10/21 13:30:40;;;;;;;3.08;1.00;;;19.60;57.10;;;;;;4969630;28;20556;-59
2023/10/21 13:33:09;;;;;;;2.67;1.00;;;19.70;56.60;;;;;;4971060;28;20129;-59